createdAt,value
2018-02-14T00:00:48.819Z,20.90
2018-02-14T00:01:48.834Z,20.60
2018-02-14T00:02:48.855Z,23.20
2018-02-14T00:03:48.848Z,21.10
2018-02-14T00:04:48.861Z,20.40
2018-02-14T00:05:48.871Z,21.40
2018-02-14T00:06:48.888Z,20.70
2018-02-14T00:07:48.884Z,21.70
2018-02-14T00:08:48.886Z,21.60
2018-02-14T00:09:48.893Z,21.70
2018-02-14T00:10:48.904Z,22.80
2018-02-14T00:11:48.909Z,20.60
2018-02-14T00:12:48.914Z,21.50
2018-02-14T00:13:48.928Z,21.40
2018-02-14T00:14:48.937Z,20.70
2018-02-14T00:15:48.942Z,21.10
2018-02-14T00:16:48.955Z,22.30
2018-02-14T00:17:48.952Z,20.40
2018-02-14T00:18:48.959Z,21.00
2018-02-14T00:19:48.972Z,22.50
2018-02-14T00:20:48.975Z,21.90
2018-02-14T00:21:48.991Z,21.30
2018-02-14T00:22:48.994Z,21.70
2018-02-14T00:23:48.999Z,20.10
2018-02-14T00:24:49.015Z,20.80
2018-02-14T00:25:49.007Z,21.30
2018-02-14T00:26:49.020Z,21.20
2018-02-14T00:27:49.029Z,22.30
2018-02-14T00:28:49.036Z,21.80
2018-02-14T00:29:49.044Z,22.00
2018-02-14T00:30:49.049Z,21.30
2018-02-14T00:31:49.058Z,22.70
2018-02-14T00:32:49.072Z,21.20
2018-02-14T00:33:49.067Z,21.80
2018-02-14T00:34:49.080Z,23.00
2018-02-14T00:35:49.087Z,23.00
2018-02-14T00:36:49.092Z,21.80
2018-02-14T00:37:49.108Z,23.30
2018-02-14T00:38:49.121Z,22.10
2018-02-14T00:39:49.118Z,21.80
2018-02-14T00:40:49.132Z,22.20
2018-02-14T00:41:49.129Z,23.10
2018-02-14T00:42:49.135Z,21.90
2018-02-14T00:43:49.143Z,22.20
2018-02-14T00:44:49.154Z,21.70
2018-02-14T00:45:49.163Z,21.50
2018-02-14T00:46:49.170Z,21.90
2018-02-14T00:47:49.178Z,22.80
2018-02-14T00:48:49.191Z,23.40
2018-02-14T00:49:49.184Z,23.50
2018-02-14T00:50:49.199Z,22.20
2018-02-14T00:51:49.202Z,23.10
2018-02-14T00:52:49.210Z,21.70
2018-02-14T00:53:49.219Z,22.30
2018-02-14T00:54:49.230Z,20.40
2018-02-14T00:55:49.234Z,21.90
2018-02-14T00:56:49.236Z,22.60
2018-02-14T00:57:49.244Z,22.50
2018-02-14T00:58:49.254Z,22.40
2018-02-14T00:59:49.267Z,22.70
2018-02-14T01:00:49.269Z,22.10
2018-02-14T01:01:49.278Z,22.60
2018-02-14T01:02:49.284Z,22.90
2018-02-14T01:03:49.291Z,21.90
2018-02-14T01:04:49.293Z,21.30
2018-02-14T01:05:49.299Z,22.30
2018-02-14T01:06:49.311Z,21.90
2018-02-14T01:07:49.321Z,22.10
2018-02-14T01:08:49.325Z,22.80
2018-02-14T01:09:49.339Z,22.90
2018-02-14T01:10:49.342Z,22.90
2018-02-14T01:11:49.342Z,22.20
2018-02-14T01:12:49.352Z,22.20
2018-02-14T01:13:49.358Z,21.90
2018-02-14T01:14:49.378Z,21.40
2018-02-14T01:15:49.379Z,22.60
2018-02-14T01:16:49.385Z,21.80
2018-02-14T01:17:49.396Z,23.80
2018-02-14T01:18:49.407Z,22.80
2018-02-14T01:19:49.415Z,22.20
2018-02-14T01:20:49.410Z,21.70
2018-02-14T01:21:49.417Z,22.80
2018-02-14T01:22:49.430Z,22.50
2018-02-14T01:23:49.439Z,21.60
2018-02-14T01:24:49.444Z,21.90
2018-02-14T01:25:49.457Z,21.60
2018-02-14T01:26:49.460Z,21.20
2018-02-14T01:27:49.457Z,22.30
2018-02-14T01:28:49.472Z,21.70
2018-02-14T01:29:49.477Z,21.50
2018-02-14T01:30:49.487Z,20.90
2018-02-14T01:31:49.496Z,22.20
2018-02-14T01:32:49.511Z,21.50
2018-02-14T01:33:49.514Z,21.60
2018-02-14T01:34:49.508Z,22.10
2018-02-14T01:35:49.516Z,21.70
2018-02-14T01:36:49.530Z,21.40
2018-02-14T01:37:49.532Z,22.30
2018-02-14T01:38:49.551Z,21.90
2018-02-14T01:39:49.558Z,22.10
2018-02-14T01:40:49.560Z,22.90
2018-02-14T01:41:49.578Z,22.70
2018-02-14T01:42:49.563Z,22.20
2018-02-14T01:43:49.572Z,22.30
2018-02-14T01:44:49.586Z,22.70
2018-02-14T01:45:49.604Z,23.60
2018-02-14T01:46:49.607Z,22.90
2018-02-14T01:47:49.615Z,22.30
2018-02-14T01:48:49.607Z,22.80
2018-02-14T01:49:49.618Z,23.00
2018-02-14T01:50:49.625Z,21.90
2018-02-14T01:51:49.631Z,22.50
2018-02-14T01:52:49.644Z,21.80
2018-02-14T01:53:49.651Z,21.00
2018-02-14T01:54:49.665Z,24.60
2018-02-14T01:55:49.662Z,22.00
2018-02-14T01:56:49.668Z,20.60
2018-02-14T01:57:49.680Z,23.60
2018-02-14T01:58:49.688Z,24.00
2018-02-14T01:59:49.692Z,22.50
2018-02-14T02:00:49.709Z,23.10
2018-02-14T02:01:49.707Z,23.00
2018-02-14T02:02:49.710Z,23.00
2018-02-14T02:03:49.724Z,21.20
2018-02-14T02:04:49.725Z,21.20
2018-02-14T02:05:49.741Z,21.60
2018-02-14T02:06:49.741Z,22.60
2018-02-14T02:07:49.753Z,21.20
2018-02-14T02:08:49.764Z,22.00
2018-02-14T02:09:49.761Z,20.60
2018-02-14T02:10:49.773Z,22.40
2018-02-14T02:11:49.776Z,21.00
2018-02-14T02:12:49.785Z,23.00
2018-02-14T02:13:49.792Z,20.50
2018-02-14T02:14:49.804Z,22.10
2018-02-14T02:15:49.814Z,22.40
2018-02-14T02:16:49.808Z,22.50
2018-02-14T02:17:49.817Z,21.50
2018-02-14T02:18:49.834Z,22.30
2018-02-14T02:19:49.837Z,21.60
2018-02-14T02:20:49.843Z,21.50
2018-02-14T02:21:49.852Z,21.60
2018-02-14T02:22:49.877Z,21.50
2018-02-14T02:23:49.860Z,21.50
2018-02-14T02:24:49.865Z,21.50
2018-02-14T02:25:49.876Z,22.70
2018-02-14T02:26:49.884Z,21.40
2018-02-14T02:27:49.907Z,22.10
2018-02-14T02:28:49.905Z,22.60
2018-02-14T02:29:49.912Z,22.40
2018-02-14T02:30:49.912Z,23.20
2018-02-14T02:31:49.918Z,21.50
2018-02-14T02:32:49.921Z,22.60
2018-02-14T02:33:49.941Z,22.10
2018-02-14T02:34:49.941Z,23.90
2018-02-14T02:35:49.954Z,21.70
2018-02-14T02:36:49.962Z,22.80
2018-02-14T02:37:49.953Z,23.20
2018-02-14T02:38:49.970Z,22.80
2018-02-14T02:39:49.976Z,22.50
2018-02-14T02:40:49.984Z,22.10
2018-02-14T02:41:49.994Z,22.00
2018-02-14T02:42:50.000Z,20.40
2018-02-14T02:43:49.997Z,19.10
2018-02-14T02:44:50.011Z,20.20
2018-02-14T02:45:50.014Z,20.60
2018-02-14T02:46:50.027Z,21.90
2018-02-14T02:47:50.043Z,23.50
2018-02-14T02:48:50.041Z,22.00
2018-02-14T02:49:50.055Z,24.30
2018-02-14T02:50:50.044Z,23.20
2018-02-14T02:51:50.055Z,22.60
2018-02-14T02:52:50.078Z,22.70
2018-02-14T02:53:50.077Z,21.30
2018-02-14T02:54:50.089Z,21.90
2018-02-14T02:55:50.095Z,22.90
2018-02-14T02:56:50.088Z,21.10
2018-02-14T02:57:50.098Z,22.10
2018-02-14T02:58:50.102Z,20.70
2018-02-14T02:59:50.111Z,22.30
2018-02-14T03:00:50.130Z,23.00
2018-02-14T03:01:50.129Z,23.10
2018-02-14T03:02:50.147Z,22.30
2018-02-14T03:03:50.141Z,21.50
2018-02-14T03:04:50.149Z,21.00
2018-02-14T03:05:50.163Z,19.90
2018-02-14T03:06:50.167Z,23.00
2018-02-14T03:07:50.175Z,22.40
2018-02-14T03:08:50.186Z,22.10
2018-02-14T03:09:50.176Z,20.40
2018-02-14T03:10:50.193Z,21.60
2018-02-14T03:11:50.197Z,20.70
2018-02-14T03:12:50.202Z,21.90
2018-02-14T03:13:50.221Z,21.40
2018-02-14T03:14:50.224Z,22.50
2018-02-14T03:15:50.225Z,23.90
2018-02-14T03:16:50.231Z,23.50
2018-02-14T03:17:50.233Z,20.60
2018-02-14T03:18:50.246Z,22.20
2018-02-14T03:19:50.264Z,21.80
2018-02-14T03:20:50.260Z,21.60
2018-02-14T03:21:50.268Z,23.20
2018-02-14T03:22:50.267Z,21.60
2018-02-14T03:23:50.280Z,21.80
2018-02-14T03:24:50.289Z,21.80
2018-02-14T03:25:50.296Z,22.20
2018-02-14T03:26:50.305Z,22.40
2018-02-14T03:27:50.303Z,21.40
2018-02-14T03:28:50.314Z,22.20
2018-02-14T03:29:50.326Z,23.20
2018-02-14T03:30:50.327Z,23.50
2018-02-14T03:31:50.335Z,22.70
2018-02-14T03:32:50.349Z,22.50
2018-02-14T03:33:50.341Z,21.50
2018-02-14T03:34:50.355Z,22.20
2018-02-14T03:35:50.363Z,21.60
2018-02-14T03:36:50.367Z,21.90
2018-02-14T03:37:50.378Z,21.70
2018-02-14T03:38:50.388Z,22.30
2018-02-14T03:39:50.384Z,22.60
2018-02-14T03:40:50.398Z,23.70
2018-02-14T03:41:50.398Z,22.50
2018-02-14T03:42:50.414Z,23.20
2018-02-14T03:43:50.425Z,22.70
2018-02-14T03:44:50.427Z,21.80
2018-02-14T03:45:50.425Z,21.50
2018-02-14T03:46:50.428Z,21.60
2018-02-14T03:47:50.439Z,22.40
2018-02-14T03:48:50.471Z,23.10
2018-02-14T03:49:50.458Z,21.80
2018-02-14T03:50:50.468Z,23.40
2018-02-14T03:51:50.468Z,23.40
2018-02-14T03:52:50.470Z,23.40
2018-02-14T03:53:50.486Z,21.50
2018-02-14T03:54:50.493Z,21.60
2018-02-14T03:55:50.498Z,22.00
2018-02-14T03:56:50.512Z,22.70
2018-02-14T03:57:50.508Z,20.60
2018-02-14T03:58:50.514Z,20.10
2018-02-14T03:59:50.523Z,21.90
2018-02-14T04:00:50.529Z,20.60
2018-02-14T04:01:50.544Z,22.20
2018-02-14T04:02:50.551Z,22.50
2018-02-14T04:03:50.547Z,22.50
2018-02-14T04:04:50.561Z,21.50
2018-02-14T04:05:50.562Z,22.10
2018-02-14T04:06:50.584Z,22.70
2018-02-14T04:07:50.586Z,22.80
2018-02-14T04:08:50.594Z,21.70
2018-02-14T04:09:50.588Z,23.00
2018-02-14T04:10:50.592Z,22.00
2018-02-14T04:11:50.608Z,22.30
2018-02-14T04:12:50.618Z,22.00
2018-02-14T04:13:50.622Z,22.00
2018-02-14T04:14:50.635Z,21.70
2018-02-14T04:15:50.646Z,24.50
2018-02-14T04:16:50.640Z,24.30
2018-02-14T04:17:50.652Z,23.90
2018-02-14T04:18:50.651Z,24.10
2018-02-14T04:19:50.660Z,23.50
2018-02-14T04:20:50.677Z,23.10
2018-02-14T04:21:50.670Z,23.00
2018-02-14T04:22:50.678Z,23.40
2018-02-14T04:23:50.689Z,23.20
2018-02-14T04:24:50.696Z,23.30
2018-02-14T04:25:50.704Z,22.80
2018-02-14T04:26:50.720Z,22.20
2018-02-14T04:27:50.712Z,23.20
2018-02-14T04:28:50.717Z,24.70
2018-02-14T04:29:50.727Z,22.70
2018-02-14T04:30:50.734Z,23.10
2018-02-14T04:31:50.747Z,22.60
2018-02-14T04:32:50.746Z,23.40
2018-02-14T04:33:50.755Z,23.50
2018-02-14T04:34:50.761Z,22.90
2018-02-14T04:35:50.772Z,23.60
2018-02-14T04:36:50.775Z,22.40
2018-02-14T04:37:50.791Z,22.70
2018-02-14T04:38:50.781Z,24.30
2018-02-14T04:39:50.789Z,24.90
2018-02-14T04:40:50.804Z,25.20
2018-02-14T04:41:50.805Z,25.00
2018-02-14T04:42:50.822Z,25.30
2018-02-14T04:43:50.822Z,24.50
2018-02-14T04:44:50.821Z,23.70
2018-02-14T04:45:50.835Z,25.70
2018-02-14T04:46:50.840Z,25.30
2018-02-14T04:47:50.850Z,23.60
2018-02-14T04:48:50.866Z,25.70
2018-02-14T04:49:50.859Z,24.20
2018-02-14T04:50:50.870Z,24.30
2018-02-14T04:51:50.881Z,25.30
2018-02-14T04:52:50.881Z,24.80
2018-02-14T04:53:50.891Z,25.20
2018-02-14T04:54:50.897Z,23.40
2018-02-14T04:55:50.897Z,24.80
2018-02-14T04:56:50.912Z,24.00
2018-02-14T04:57:50.916Z,25.00
2018-02-14T04:58:50.927Z,24.90
2018-02-14T04:59:50.938Z,23.20
2018-02-14T05:00:50.939Z,24.90
2018-02-14T05:01:50.941Z,24.20
2018-02-14T05:02:50.943Z,24.90
2018-02-14T05:03:50.950Z,24.90
2018-02-14T05:04:50.970Z,25.50
2018-02-14T05:05:50.971Z,23.70
2018-02-14T05:06:50.985Z,24.20
2018-02-14T05:07:50.981Z,24.20
2018-02-14T05:08:50.985Z,24.90
2018-02-14T05:09:51.006Z,22.70
2018-02-14T05:10:51.033Z,23.40
2018-02-14T05:11:51.012Z,24.50
2018-02-14T05:12:51.014Z,26.90
2018-02-14T05:13:51.016Z,26.50
2018-02-14T05:14:51.029Z,26.10
2018-02-14T05:15:51.039Z,25.80
2018-02-14T05:16:51.041Z,26.70
2018-02-14T05:17:51.057Z,26.00
2018-02-14T05:18:51.050Z,26.60
2018-02-14T05:19:51.059Z,28.10
2018-02-14T05:20:51.071Z,27.30
2018-02-14T05:21:51.074Z,25.80
2018-02-14T05:22:51.087Z,26.60
2018-02-14T05:23:51.096Z,26.80
2018-02-14T05:24:51.097Z,25.20
2018-02-14T05:25:51.103Z,25.40
2018-02-14T05:26:51.110Z,25.40
2018-02-14T05:27:51.121Z,28.00
2018-02-14T05:28:51.132Z,24.90
2018-02-14T05:29:51.132Z,25.60
2018-02-14T05:30:51.139Z,25.30
2018-02-14T05:31:51.143Z,26.70
2018-02-14T05:32:51.147Z,25.80
2018-02-14T05:33:51.162Z,25.80
2018-02-14T05:34:51.168Z,27.70
2018-02-14T05:35:51.164Z,27.20
2018-02-14T05:36:51.176Z,26.60
2018-02-14T05:37:51.180Z,26.20
2018-02-14T05:38:51.198Z,26.00
2018-02-14T05:39:51.201Z,26.80
2018-02-14T05:40:51.211Z,28.40
2018-02-14T05:41:51.207Z,25.90
2018-02-14T05:42:51.212Z,27.10
2018-02-14T05:43:51.223Z,26.20
2018-02-14T05:44:51.232Z,27.10
2018-02-14T05:45:51.241Z,25.70
2018-02-14T05:46:51.252Z,25.70
2018-02-14T05:47:51.249Z,27.60
2018-02-14T05:48:51.256Z,28.60
2018-02-14T05:49:51.265Z,26.80
2018-02-14T05:50:51.269Z,28.80
2018-02-14T05:51:51.277Z,28.10
2018-02-14T05:52:51.285Z,26.60
2018-02-14T05:53:51.286Z,27.20
2018-02-14T05:54:51.299Z,25.30
2018-02-14T05:55:51.307Z,26.50
2018-02-14T05:56:51.311Z,28.80
2018-02-14T05:57:51.331Z,29.10
2018-02-14T05:58:51.319Z,27.70
2018-02-14T05:59:51.327Z,26.30
2018-02-14T06:00:51.344Z,26.90
2018-02-14T06:01:51.343Z,25.80
2018-02-14T06:02:51.356Z,27.00
2018-02-14T06:03:51.366Z,27.60
2018-02-14T06:04:51.360Z,26.40
2018-02-14T06:05:51.385Z,27.50
2018-02-14T06:06:51.380Z,26.20
2018-02-14T06:07:51.386Z,27.60
2018-02-14T06:08:51.399Z,25.50
2018-02-14T06:09:51.389Z,28.40
2018-02-14T06:10:51.405Z,27.80
2018-02-14T06:11:51.410Z,26.50
2018-02-14T06:12:51.416Z,27.40
2018-02-14T06:13:51.485Z,26.90
2018-02-14T06:14:51.433Z,26.70
2018-02-14T06:15:51.435Z,28.00
2018-02-14T06:16:51.442Z,29.00
2018-02-14T06:17:51.452Z,29.50
2018-02-14T06:18:51.466Z,31.00
2018-02-14T06:19:51.471Z,28.80
2018-02-14T06:20:51.476Z,31.80
2018-02-14T06:21:51.476Z,28.70
2018-02-14T06:22:51.478Z,30.40
2018-02-14T06:23:51.493Z,32.80
2018-02-14T06:24:51.503Z,32.80
2018-02-14T06:25:51.507Z,31.30
2018-02-14T06:26:51.522Z,32.50
2018-02-14T06:27:51.517Z,30.50
2018-02-14T06:28:51.526Z,32.30
2018-02-14T06:29:51.537Z,30.30
2018-02-14T06:30:51.543Z,32.40
2018-02-14T06:31:51.556Z,31.50
2018-02-14T06:32:51.557Z,31.70
2018-02-14T06:33:51.559Z,32.30
2018-02-14T06:34:51.567Z,30.80
2018-02-14T06:35:51.573Z,30.10
2018-02-14T06:36:51.589Z,31.00
2018-02-14T06:37:51.593Z,30.70
2018-02-14T06:38:51.602Z,29.60
2018-02-14T06:39:51.602Z,31.20
2018-02-14T06:40:51.618Z,34.50
2018-02-14T06:41:51.615Z,33.20
2018-02-14T06:42:51.625Z,32.40
2018-02-14T06:43:51.628Z,32.10
2018-02-14T06:44:51.631Z,30.20
2018-02-14T06:45:51.637Z,32.90
2018-02-14T06:46:51.647Z,34.90
2018-02-14T06:47:51.656Z,37.20
2018-02-14T06:48:51.661Z,36.20
2018-02-14T06:49:51.678Z,33.80
2018-02-14T06:50:51.670Z,34.20
2018-02-14T06:51:51.681Z,31.10
2018-02-14T06:52:51.690Z,32.70
2018-02-14T06:53:51.692Z,32.00
2018-02-14T06:54:51.705Z,31.50
2018-02-14T06:55:51.715Z,31.50
2018-02-14T06:56:51.708Z,32.30
2018-02-14T06:57:51.725Z,33.70
2018-02-14T06:58:51.748Z,32.40
2018-02-14T06:59:51.736Z,33.20
2018-02-14T07:00:51.750Z,31.70
2018-02-14T07:01:51.754Z,31.20
2018-02-14T07:02:51.766Z,31.00
2018-02-14T07:03:51.762Z,30.40
2018-02-14T07:04:51.771Z,32.80
2018-02-14T07:05:51.784Z,30.50
2018-02-14T07:06:51.783Z,32.20
2018-02-14T07:07:51.797Z,32.70
2018-02-14T07:08:51.804Z,32.40
2018-02-14T07:09:51.800Z,29.90
2018-02-14T07:10:51.853Z,30.60
2018-02-14T07:11:51.838Z,32.00
2018-02-14T07:12:51.825Z,30.20
2018-02-14T07:13:51.842Z,30.60
2018-02-14T07:14:51.842Z,30.20
2018-02-14T07:15:51.845Z,31.90
2018-02-14T07:16:51.850Z,30.00
2018-02-14T07:17:51.855Z,30.50
2018-02-14T07:18:51.875Z,31.00
2018-02-14T07:19:51.878Z,30.20
2018-02-14T07:20:51.883Z,30.50
2018-02-14T07:21:51.898Z,31.40
2018-02-14T07:22:51.890Z,32.20
2018-02-14T07:23:51.899Z,30.40
2018-02-14T07:24:51.914Z,30.10
2018-02-14T07:25:51.914Z,29.60
2018-02-14T07:26:51.928Z,30.30
2018-02-14T07:27:51.941Z,31.00
2018-02-14T07:28:51.941Z,30.50
2018-02-14T07:29:51.945Z,29.90
2018-02-14T07:30:51.952Z,31.20
2018-02-14T07:31:51.957Z,30.50
2018-02-14T07:32:51.982Z,28.70
2018-02-14T07:33:51.979Z,30.00
2018-02-14T07:34:51.989Z,32.20
2018-02-14T07:35:51.994Z,35.80
2018-02-14T07:36:51.989Z,33.30
2018-02-14T07:37:52.007Z,32.70
2018-02-14T07:38:52.007Z,33.00
2018-02-14T07:39:52.017Z,32.40
2018-02-14T07:40:52.033Z,32.20
2018-02-14T07:41:52.037Z,34.50
2018-02-14T07:42:52.048Z,32.60
2018-02-14T07:43:52.059Z,32.30
2018-02-14T07:44:52.047Z,32.60
2018-02-14T07:45:52.062Z,32.40
2018-02-14T07:46:52.066Z,32.80
2018-02-14T07:47:52.077Z,32.00
2018-02-14T07:48:52.101Z,31.90
2018-02-14T07:49:52.097Z,32.60
2018-02-14T07:50:52.109Z,31.70
2018-02-14T07:51:52.114Z,31.50
2018-02-14T07:52:52.110Z,31.90
2018-02-14T07:53:52.117Z,31.20
2018-02-14T07:54:52.123Z,32.90
2018-02-14T07:55:52.139Z,32.70
2018-02-14T07:56:52.145Z,32.20
2018-02-14T07:57:52.151Z,32.50
2018-02-14T07:58:52.164Z,32.00
2018-02-14T07:59:52.176Z,31.90
2018-02-14T08:00:52.182Z,32.10
2018-02-14T08:01:52.188Z,33.40
2018-02-14T08:02:52.182Z,32.40
2018-02-14T08:03:52.197Z,31.40
2018-02-14T08:04:52.202Z,30.10
2018-02-14T08:05:52.212Z,30.10
2018-02-14T08:06:52.226Z,31.10
2018-02-14T08:07:52.230Z,30.40
2018-02-14T08:08:52.234Z,30.10
2018-02-14T08:09:52.254Z,29.90
2018-02-14T08:10:52.258Z,29.60
2018-02-14T08:11:52.257Z,29.80
2018-02-14T08:12:52.264Z,27.80
2018-02-14T08:13:52.266Z,29.80
2018-02-14T08:14:52.280Z,29.10
2018-02-14T08:15:52.288Z,29.90
2018-02-14T08:16:52.302Z,27.70
2018-02-14T08:17:52.312Z,28.00
2018-02-14T08:18:52.314Z,28.70
2018-02-14T08:19:52.334Z,30.00
2018-02-14T08:20:52.392Z,28.60
2018-02-14T08:21:52.365Z,29.70
2018-02-14T08:22:52.353Z,29.00
2018-02-14T08:23:52.362Z,29.00
2018-02-14T08:24:52.367Z,29.20
2018-02-14T08:25:52.376Z,29.20
2018-02-14T08:26:52.370Z,27.60
2018-02-14T08:27:52.379Z,29.20
2018-02-14T08:28:52.391Z,28.30
2018-02-14T08:29:52.399Z,29.50
2018-02-14T08:30:52.411Z,28.00
2018-02-14T08:31:52.423Z,27.30
2018-02-14T08:32:52.426Z,28.20
2018-02-14T08:33:52.436Z,27.10
2018-02-14T08:34:52.446Z,27.30
2018-02-14T08:35:52.450Z,28.20
2018-02-14T08:36:52.463Z,27.70
2018-02-14T08:37:52.471Z,27.40
2018-02-14T08:38:52.476Z,27.40
2018-02-14T08:39:52.484Z,27.80
2018-02-14T08:40:52.504Z,27.90
2018-02-14T08:41:52.508Z,28.10
2018-02-14T08:42:52.517Z,27.80
2018-02-14T08:43:52.527Z,27.30
2018-02-14T08:44:52.532Z,27.90
2018-02-14T08:45:52.564Z,26.70
2018-02-14T08:46:52.553Z,26.10
2018-02-14T08:47:52.557Z,27.70
2018-02-14T08:48:52.575Z,25.70
2018-02-14T08:49:52.577Z,27.90
2018-02-14T08:50:52.589Z,27.00
2018-02-14T08:51:52.589Z,25.80
2018-02-14T08:52:52.602Z,25.70
2018-02-14T08:53:52.604Z,27.20
2018-02-14T08:54:52.620Z,25.70
2018-02-14T08:55:52.618Z,25.60
2018-02-14T08:56:52.633Z,26.60
2018-02-14T08:57:52.636Z,25.30
2018-02-14T08:58:52.647Z,26.00
2018-02-14T08:59:52.656Z,26.40
2018-02-14T09:00:52.659Z,25.20
2018-02-14T09:01:52.676Z,25.90
2018-02-14T09:02:52.682Z,25.50
2018-02-14T09:03:52.691Z,24.60
2018-02-14T09:04:52.703Z,24.80
2018-02-14T09:05:52.708Z,24.50
2018-02-14T09:06:52.729Z,25.30
2018-02-14T09:07:52.730Z,24.90
2018-02-14T09:08:52.731Z,25.10
2018-02-14T09:09:52.762Z,24.60
2018-02-14T09:10:52.761Z,23.70
2018-02-14T09:11:52.764Z,23.50
2018-02-14T09:12:52.783Z,24.10
2018-02-14T09:13:52.789Z,23.40
2018-02-14T09:14:52.801Z,24.90
2018-02-14T09:15:52.812Z,22.90
2018-02-14T09:16:52.815Z,22.30
2018-02-14T09:17:52.832Z,23.70
2018-02-14T09:18:52.842Z,22.80
2018-02-14T09:19:52.847Z,23.50
2018-02-14T09:20:52.856Z,22.60
2018-02-14T09:21:52.861Z,23.20
2018-02-14T09:22:52.876Z,22.80
2018-02-14T09:23:52.884Z,23.10
2018-02-14T09:24:52.890Z,22.30
2018-02-14T09:25:52.900Z,22.30
2018-02-14T09:26:52.904Z,21.90
2018-02-14T09:27:52.914Z,22.90
2018-02-14T09:28:52.932Z,21.40
2018-02-14T09:29:52.935Z,22.30
2018-02-14T09:30:52.943Z,22.30
2018-02-14T09:31:52.953Z,22.30
2018-02-14T09:32:52.968Z,23.10
2018-02-14T09:33:52.984Z,22.40
2018-02-14T09:34:52.992Z,21.40
2018-02-14T09:35:52.998Z,21.40
2018-02-14T09:36:53.013Z,22.10
2018-02-14T09:37:53.019Z,21.60
2018-02-14T09:38:53.030Z,21.80
2018-02-14T09:39:53.036Z,21.20
2018-02-14T09:40:53.044Z,20.70
2018-02-14T09:41:53.068Z,22.00
2018-02-14T09:42:53.063Z,22.10
2018-02-14T09:43:53.068Z,21.70
2018-02-14T09:44:53.081Z,21.80
2018-02-14T09:45:53.084Z,21.20
2018-02-14T09:46:53.109Z,21.80
2018-02-14T09:47:53.119Z,21.60
2018-02-14T09:48:53.125Z,22.30
2018-02-14T09:49:53.140Z,19.90
2018-02-14T09:50:53.144Z,21.00
2018-02-14T09:51:53.155Z,21.20
2018-02-14T09:52:53.164Z,20.60
2018-02-14T09:53:53.174Z,20.10
2018-02-14T09:54:53.197Z,19.20
2018-02-14T09:55:53.189Z,20.30
2018-02-14T09:56:53.196Z,19.60
2018-02-14T09:57:53.220Z,18.80
2018-02-14T09:58:53.224Z,19.60
2018-02-14T09:59:53.250Z,19.50
2018-02-14T10:00:53.247Z,19.10
2018-02-14T10:01:53.254Z,19.60
2018-02-14T10:02:53.271Z,18.70
2018-02-14T10:03:53.278Z,18.30
2018-02-14T10:04:53.280Z,18.50
2018-02-14T10:05:53.304Z,17.60
2018-02-14T10:06:53.309Z,17.50
2018-02-14T10:07:53.323Z,18.70
2018-02-14T10:08:53.347Z,18.70
2018-02-14T10:09:53.340Z,18.40
2018-02-14T10:10:53.353Z,17.90
2018-02-14T10:11:53.369Z,18.60
2018-02-14T10:12:53.364Z,17.90
2018-02-14T10:13:53.396Z,16.80
2018-02-14T10:14:53.399Z,17.70
2018-02-14T10:15:53.404Z,17.50
2018-02-14T10:16:53.417Z,17.50
2018-02-14T10:17:53.421Z,17.10
2018-02-14T10:18:53.431Z,16.70
2018-02-14T10:19:53.447Z,16.70
2018-02-14T10:20:53.464Z,17.60
2018-02-14T10:21:53.473Z,17.20
2018-02-14T10:22:53.480Z,18.90
2018-02-14T10:23:53.491Z,19.90
2018-02-14T10:24:53.499Z,18.50
2018-02-14T10:25:53.503Z,18.50
2018-02-14T10:26:53.528Z,19.50
2018-02-14T10:27:53.536Z,19.10
2018-02-14T10:28:53.548Z,18.20
2018-02-14T10:29:53.554Z,18.30
2018-02-14T10:30:53.564Z,19.10
2018-02-14T10:31:53.571Z,18.60
2018-02-14T10:32:53.582Z,16.80
2018-02-14T10:33:53.601Z,17.80
2018-02-14T10:34:53.627Z,16.70
2018-02-14T10:35:53.626Z,16.90
2018-02-14T10:36:53.627Z,16.60
2018-02-14T10:37:53.642Z,16.90
2018-02-14T10:38:53.656Z,16.60
2018-02-14T10:39:53.667Z,16.70
2018-02-14T10:40:53.683Z,16.40
2018-02-14T10:41:53.686Z,17.10
2018-02-14T10:42:53.700Z,17.20
2018-02-14T10:43:53.707Z,16.70
2018-02-14T10:44:53.723Z,17.20
2018-02-14T10:45:53.742Z,18.00
2018-02-14T10:46:53.741Z,18.20
2018-02-14T10:47:53.754Z,17.40
2018-02-14T10:48:53.763Z,17.20
2018-02-14T10:49:53.779Z,16.40
2018-02-14T10:50:53.792Z,16.50
2018-02-14T10:51:53.801Z,17.40
2018-02-14T10:52:53.806Z,17.90
2018-02-14T10:53:53.822Z,18.50
2018-02-14T10:54:53.837Z,16.90
2018-02-14T10:55:53.848Z,17.30
2018-02-14T10:56:53.860Z,17.60
2018-02-14T10:57:53.867Z,18.50
2018-02-14T10:58:53.883Z,17.80
2018-02-14T10:59:53.901Z,18.10
2018-02-14T11:00:53.900Z,17.00
2018-02-14T11:01:53.920Z,17.80
2018-02-14T11:02:53.921Z,17.00
2018-02-14T11:03:53.939Z,18.50
2018-02-14T11:04:53.956Z,18.40
2018-02-14T11:05:53.962Z,19.30
2018-02-14T11:06:53.977Z,19.10
2018-02-14T11:07:54.036Z,18.00
2018-02-14T11:08:53.999Z,19.00
2018-02-14T11:09:54.012Z,16.90
2018-02-14T11:10:54.016Z,17.50
2018-02-14T11:11:54.024Z,17.70
2018-02-14T11:12:54.055Z,18.80
2018-02-14T11:13:54.056Z,18.90
2018-02-14T11:14:54.069Z,19.50
2018-02-14T11:15:54.081Z,19.60
2018-02-14T11:16:54.085Z,19.30
2018-02-14T11:17:54.108Z,20.10
2018-02-14T11:18:54.113Z,19.60
2018-02-14T11:19:54.126Z,19.10
2018-02-14T11:20:54.136Z,19.40
2018-02-14T11:21:54.151Z,20.00
2018-02-14T11:22:54.168Z,20.70
2018-02-14T11:23:54.187Z,20.80
2018-02-14T11:24:54.176Z,19.70
2018-02-14T11:25:54.216Z,19.80
2018-02-14T11:26:54.213Z,19.00
2018-02-14T11:27:54.218Z,19.20
2018-02-14T11:28:54.232Z,20.10
2018-02-14T11:29:54.249Z,19.70
2018-02-14T11:30:54.265Z,18.30
2018-02-14T11:31:54.269Z,18.50
2018-02-14T11:32:54.273Z,19.90
2018-02-14T11:33:54.300Z,19.60
2018-02-14T11:34:54.306Z,19.10
2018-02-14T11:35:54.314Z,18.30
2018-02-14T11:36:54.325Z,19.20
2018-02-14T11:37:54.345Z,20.80
2018-02-14T11:38:54.366Z,19.50
2018-02-14T11:39:54.367Z,21.10
2018-02-14T11:40:54.374Z,19.10
2018-02-14T11:41:54.394Z,18.80
2018-02-14T11:42:54.399Z,20.00
2018-02-14T11:43:54.408Z,18.40
2018-02-14T11:44:54.422Z,18.30
2018-02-14T11:45:54.441Z,18.00
2018-02-14T11:46:54.455Z,18.20
2018-02-14T11:47:54.467Z,17.50
2018-02-14T11:48:54.484Z,18.70
2018-02-14T11:49:54.490Z,18.30
2018-02-14T11:50:54.496Z,18.40
2018-02-14T11:51:54.508Z,18.10
2018-02-14T11:52:54.536Z,17.50
2018-02-14T11:53:54.537Z,17.60
2018-02-14T11:54:54.549Z,17.60
2018-02-14T11:55:54.575Z,17.20
2018-02-14T11:56:54.578Z,17.30
2018-02-14T11:57:54.587Z,15.90
2018-02-14T11:58:54.594Z,15.30
2018-02-14T11:59:54.612Z,15.90
2018-02-14T12:00:54.629Z,18.60
2018-02-14T12:01:54.649Z,18.20
2018-02-14T12:02:54.660Z,18.60
2018-02-14T12:03:54.667Z,18.30
2018-02-14T12:04:54.672Z,16.60
2018-02-14T12:05:54.698Z,17.80
2018-02-14T12:06:54.705Z,16.50
2018-02-14T12:07:54.711Z,17.10
2018-02-14T12:08:54.727Z,16.40
2018-02-14T12:09:54.739Z,15.50
2018-02-14T12:10:54.752Z,15.50
2018-02-14T12:11:54.765Z,15.50
2018-02-14T12:12:54.778Z,16.40
2018-02-14T12:13:54.793Z,16.00
2018-02-14T12:14:54.799Z,15.90
2018-02-14T12:15:54.836Z,17.40
2018-02-14T12:16:54.835Z,17.30
2018-02-14T12:17:54.835Z,17.00
2018-02-14T12:18:54.867Z,17.00
2018-02-14T12:19:54.870Z,16.00
2018-02-14T12:20:54.875Z,16.90
2018-02-14T12:21:54.889Z,17.40
2018-02-14T12:22:54.906Z,18.00
2018-02-14T12:23:54.914Z,18.50
2018-02-14T12:24:54.927Z,19.00
2018-02-14T12:25:54.949Z,16.60
2018-02-14T12:26:54.963Z,15.60
2018-02-14T12:27:54.971Z,16.90
2018-02-14T12:28:54.986Z,18.10
2018-02-14T12:29:54.996Z,15.70
2018-02-14T12:30:55.006Z,16.90
2018-02-14T12:31:55.023Z,16.40
2018-02-14T12:32:55.038Z,14.90
2018-02-14T12:33:55.050Z,14.30
2018-02-14T12:34:55.069Z,14.30
2018-02-14T12:35:55.077Z,13.20
2018-02-14T12:36:55.086Z,14.40
2018-02-14T12:37:55.107Z,14.50
2018-02-14T12:38:55.112Z,15.30
2018-02-14T12:39:55.121Z,16.40
2018-02-14T12:40:55.146Z,16.00
2018-02-14T12:41:55.158Z,16.10
2018-02-14T12:42:55.166Z,16.40
2018-02-14T12:43:55.183Z,14.30
2018-02-14T12:44:55.191Z,14.00
2018-02-14T12:45:55.204Z,15.20
2018-02-14T12:46:55.220Z,12.70
2018-02-14T12:47:55.230Z,13.40
2018-02-14T12:48:55.244Z,14.50
2018-02-14T12:49:55.260Z,16.70
2018-02-14T12:50:55.271Z,16.90
2018-02-14T12:51:55.292Z,18.20
2018-02-14T12:52:55.297Z,17.30